Time;durP1;ratioP1;P1;durP2;ratioP2;P2;SDS_P1;SDS_P2;PMS_P1;PMS_P2;Temp;Humidity;BMP_temperature;BMP_pressure;BME280_temperature;BME280_humidity;BME280_pressure;Samples;Min_cycle;Max_cycle;Signal;HPM_P1;HPM_P2
2022/09/14 00:01:39;;;;;;;0.90;0.60;;;18.70;99.90;;;;;;5097135;28;20047;-72
2022/09/14 00:04:13;;;;;;;0.63;0.63;;;18.70;99.90;;;;;;5115458;28;20482;-72
2022/09/14 00:06:40;;;;;;;6.22;0.95;;;18.70;99.90;;;;;;5115371;28;20332;-72
2022/09/14 00:09:06;;;;;;;1.65;0.60;;;18.80;99.90;;;;;;5115355;28;20015;-72
2022/09/14 00:11:33;;;;;;;1.23;0.80;;;18.90;99.90;;;;;;5115181;28;20047;-71
2022/09/14 00:14:01;;;;;;;0.57;0.57;;;18.90;99.90;;;;;;5115323;28;20506;-72
2022/09/14 00:16:33;;;;;;;0.60;0.60;;;18.90;99.90;;;;;;5115059;28;20051;-72
2022/09/14 00:19:05;;;;;;;0.50;0.50;;;18.90;99.90;;;;;;5115155;28;20032;-72
2022/09/14 00:21:32;;;;;;;0.70;0.70;;;18.90;99.90;;;;;;5096767;28;20038;-72
2022/09/14 00:23:58;;;;;;;0.75;0.75;;;18.90;99.90;;;;;;5115101;28;20464;-72
2022/09/14 00:26:24;;;;;;;0.57;0.40;;;18.80;99.90;;;;;;5115170;28;20076;-72
2022/09/14 00:28:55;;;;;;;0.40;0.40;;;18.80;99.90;;;;;;5115029;28;20027;-72
2022/09/14 00:31:23;;;;;;;1.02;0.95;;;18.80;99.90;;;;;;5114833;28;20032;-72
2022/09/14 00:33:50;;;;;;;0.60;0.60;;;18.70;99.90;;;;;;5114727;28;20175;-72
2022/09/14 00:36:19;;;;;;;0.95;0.85;;;18.70;99.90;;;;;;5114903;28;20024;-72
2022/09/14 00:38:46;;;;;;;0.98;0.80;;;18.80;99.90;;;;;;5115010;28;20034;-72
2022/09/14 00:41:15;;;;;;;1.40;0.88;;;18.70;99.90;;;;;;5114760;28;20027;-72
2022/09/14 00:44:04;;;;;;;4.05;1.45;;;18.70;99.90;;;;;;5096830;28;20024;-73
2022/09/14 00:46:35;;;;;;;;;;;18.70;99.90;;;;;;5115245;28;20076;-72
2022/09/14 00:49:05;;;;;;;0.52;0.52;;;18.70;99.90;;;;;;5114562;28;19911;-72
2022/09/14 00:51:32;;;;;;;;;;;18.70;99.90;;;;;;5115099;28;20024;-72
2022/09/14 00:54:01;;;;;;;0.75;0.73;;;18.80;99.90;;;;;;5096135;28;19912;-72
2022/09/14 00:56:26;;;;;;;0.40;0.40;;;18.80;99.90;;;;;;5114794;28;20066;-72
2022/09/14 00:58:53;;;;;;;0.80;0.80;;;18.80;99.90;;;;;;5114566;28;20048;-71
2022/09/14 01:01:19;;;;;;;1.50;1.02;;;18.90;99.90;;;;;;5096159;28;20031;-72
2022/09/14 01:03:45;;;;;;;0.70;0.70;;;18.90;99.90;;;;;;5113776;28;20043;-72
2022/09/14 01:06:38;;;;;;;1.35;1.25;;;18.90;99.90;;;;;;5095897;28;20035;-72
2022/09/14 01:09:14;;;;;;;0.50;0.50;;;18.80;99.90;;;;;;5114314;28;20039;-71
2022/09/14 01:11:48;;;;;;;1.80;0.98;;;18.80;99.90;;;;;;5114031;28;20024;-72
2022/09/14 01:14:27;;;;;;;1.02;0.65;;;18.70;99.90;;;;;;5114181;28;20099;-72
2022/09/14 01:16:58;;;;;;;0.75;0.75;;;18.70;99.90;;;;;;5114070;28;20072;-74
2022/09/14 01:19:42;;;;;;;1.60;0.88;;;18.70;99.90;;;;;;5114132;28;20049;-72
2022/09/14 01:22:16;;;;;;;0.52;0.50;;;18.80;99.90;;;;;;5095650;28;20114;-72
2022/09/14 01:24:46;;;;;;;0.85;0.73;;;18.80;99.90;;;;;;5113834;28;20484;-71
2022/09/14 01:27:40;;;;;;;1.30;0.80;;;18.80;99.90;;;;;;5113742;28;20484;-72
2022/09/14 01:30:09;;;;;;;1.08;0.98;;;18.80;99.90;;;;;;5113883;28;20491;-72
2022/09/14 01:33:01;;;;;;;;;;;18.70;99.90;;;;;;5096014;28;20035;-73
2022/09/14 01:35:29;;;;;;;8.27;1.77;;;18.70;99.90;;;;;;5095632;28;19969;-73
2022/09/14 01:38:04;;;;;;;1.85;0.82;;;18.70;99.90;;;;;;5095479;28;20080;-72
2022/09/14 01:40:45;;;;;;;0.70;0.70;;;18.60;99.90;;;;;;5113869;28;20054;-72
2022/09/14 01:43:19;;;;;;;0.60;0.60;;;18.60;99.90;;;;;;5113616;28;20482;-72
2022/09/14 01:45:49;;;;;;;0.68;0.68;;;18.60;99.90;;;;;;5113627;28;20027;-72
2022/09/14 01:48:19;;;;;;;0.80;0.70;;;18.50;99.90;;;;;;5113674;28;20118;-72
2022/09/14 01:50:55;;;;;;;0.50;0.50;;;18.40;99.90;;;;;;5113651;28;20091;-72
2022/09/14 01:53:41;;;;;;;0.77;0.60;;;18.40;99.90;;;;;;5113576;28;20042;-72
2022/09/14 01:56:16;;;;;;;0.70;0.70;;;18.40;99.90;;;;;;5113832;28;20043;-71
2022/09/14 01:58:49;;;;;;;3.30;1.40;;;18.30;99.90;;;;;;5113868;28;20030;-72
2022/09/14 02:01:31;;;;;;;0.75;0.75;;;18.30;99.90;;;;;;5113617;28;20031;-72
2022/09/14 02:04:02;;;;;;;1.15;0.52;;;18.30;99.90;;;;;;5113701;28;20036;-72
2022/09/14 02:06:41;;;;;;;0.75;0.30;;;18.20;99.90;;;;;;5113555;28;20028;-72
2022/09/14 02:09:09;;;;;;;8.63;1.35;;;18.20;99.90;;;;;;5095364;28;20023;-72
2022/09/14 02:11:35;;;;;;;1.25;0.77;;;18.20;99.90;;;;;;5095242;28;20046;-73
2022/09/14 02:14:01;;;;;;;0.77;0.77;;;18.20;99.90;;;;;;5095096;28;20395;-72
2022/09/14 02:16:27;;;;;;;0.85;0.85;;;18.20;99.90;;;;;;5116781;28;20045;-72
2022/09/14 02:18:53;;;;;;;0.85;0.63;;;18.20;99.90;;;;;;5117390;28;20023;-72
2022/09/14 02:21:24;;;;;;;0.95;0.95;;;18.20;99.90;;;;;;5117324;28;20103;-72
2022/09/14 02:23:50;;;;;;;1.42;1.33;;;18.20;99.90;;;;;;5117301;28;20023;-72
2022/09/14 02:26:18;;;;;;;0.80;0.80;;;18.20;99.90;;;;;;5117391;28;20024;-73
2022/09/14 02:28:44;;;;;;;1.02;1.02;;;18.20;99.90;;;;;;5117459;28;20016;-73
2022/09/14 02:31:43;;;;;;;0.88;0.82;;;18.20;99.90;;;;;;5117562;28;20040;-73
2022/09/14 02:34:28;;;;;;;;;;;18.20;99.90;;;;;;5117632;28;20024;-74
2022/09/14 02:37:02;;;;;;;1.05;0.77;;;18.20;99.90;;;;;;5098772;28;19968;-73
2022/09/14 02:39:47;;;;;;;1.70;0.70;;;18.20;99.90;;;;;;5116990;28;20031;-73
2022/09/14 02:42:27;;;;;;;2.30;0.70;;;18.20;99.90;;;;;;5098795;28;20484;-73
2022/09/14 02:45:04;;;;;;;1.55;0.60;;;18.20;99.90;;;;;;5117029;28;20027;-72
2022/09/14 02:47:54;;;;;;;1.25;1.15;;;18.10;99.90;;;;;;5117024;28;20383;-72
2022/09/14 02:50:29;;;;;;;0.52;0.52;;;18.10;99.90;;;;;;5116927;28;20020;-72
2022/09/14 02:53:03;;;;;;;0.65;0.50;;;18.10;99.90;;;;;;5116753;28;20088;-72
2022/09/14 02:55:35;;;;;;;0.70;0.70;;;18.00;99.90;;;;;;5116561;28;20027;-72
2022/09/14 02:58:04;;;;;;;0.70;0.70;;;18.00;99.90;;;;;;5116733;28;20055;-72
2022/09/14 03:00:31;;;;;;;0.55;0.55;;;18.10;99.90;;;;;;5117322;28;20023;-72
2022/09/14 03:02:57;;;;;;;0.80;0.35;;;18.10;99.90;;;;;;5116676;28;20031;-72
2022/09/14 03:05:24;;;;;;;0.95;0.70;;;18.10;99.90;;;;;;5116599;28;20047;-73
2022/09/14 03:07:49;;;;;;;0.90;0.90;;;18.10;99.90;;;;;;5116654;28;20024;-72
2022/09/14 03:10:15;;;;;;;0.73;0.68;;;18.20;99.90;;;;;;5116495;28;20099;-72
2022/09/14 03:12:41;;;;;;;2.10;0.88;;;18.20;99.90;;;;;;5116467;28;20047;-72
2022/09/14 03:15:07;;;;;;;0.70;0.70;;;18.50;99.90;;;;;;5116330;28;20019;-72
2022/09/14 03:17:33;;;;;;;0.73;0.73;;;18.10;99.90;;;;;;5116422;28;20515;-71
2022/09/14 03:19:58;;;;;;;0.82;0.75;;;18.10;99.90;;;;;;5116658;28;20058;-72
2022/09/14 03:22:24;;;;;;;1.13;0.60;;;18.10;99.90;;;;;;5116262;28;20051;-72
2022/09/14 03:24:50;;;;;;;7.32;0.88;;;18.00;99.90;;;;;;5116528;28;20022;-72
2022/09/14 03:27:15;;;;;;;1.55;0.60;;;18.00;99.90;;;;;;5115971;28;20030;-73
2022/09/14 03:29:41;;;;;;;0.98;0.73;;;18.00;99.90;;;;;;5116498;28;20432;-72
2022/09/14 03:32:09;;;;;;;0.50;0.50;;;;;;;;;;5116023;28;20048;-72
2022/09/14 03:34:35;;;;;;;0.40;0.40;;;18.00;99.90;;;;;;5116370;28;20462;-72
2022/09/14 03:37:01;;;;;;;0.65;0.65;;;18.00;99.90;;;;;;5116065;28;20046;-72
2022/09/14 03:39:27;;;;;;;1.05;0.98;;;18.00;99.90;;;;;;5097711;28;20484;-73
2022/09/14 03:41:53;;;;;;;0.30;0.30;;;18.00;99.90;;;;;;5115908;28;20012;-71
2022/09/14 03:44:19;;;;;;;0.85;0.70;;;18.10;99.90;;;;;;5115942;28;20586;-72
2022/09/14 03:46:45;;;;;;;0.70;0.70;;;18.00;99.90;;;;;;5115704;28;20039;-74
2022/09/14 03:49:10;;;;;;;0.40;0.38;;;18.00;99.90;;;;;;5115667;28;20467;-72
2022/09/14 03:51:36;;;;;;;0.77;0.77;;;17.80;99.90;;;;;;5115666;28;20033;-72
2022/09/14 03:54:02;;;;;;;1.38;0.68;;;;;;;;;;5115823;28;20483;-73
2022/09/14 03:56:28;;;;;;;2.85;0.93;;;17.60;99.90;;;;;;5115685;28;20506;-73
2022/09/14 03:58:57;;;;;;;1.00;0.82;;;17.60;99.90;;;;;;5097252;28;20063;-72
2022/09/14 04:01:22;;;;;;;0.90;0.70;;;17.50;99.90;;;;;;5115582;28;20020;-72
2022/09/14 04:03:49;;;;;;;2.50;0.80;;;17.50;99.90;;;;;;5115240;28;20173;-72
2022/09/14 04:06:16;;;;;;;1.40;0.90;;;17.50;99.90;;;;;;5115563;28;20055;-72
2022/09/14 04:08:43;;;;;;;0.88;0.88;;;17.40;99.90;;;;;;5115349;28;20524;-72
2022/09/14 04:11:10;;;;;;;1.45;0.85;;;17.40;99.90;;;;;;5115342;28;20495;-74
2022/09/14 04:13:36;;;;;;;2.38;1.15;;;17.40;99.90;;;;;;5115381;28;20038;-72
2022/09/14 04:16:02;;;;;;;0.55;0.50;;;17.30;99.90;;;;;;5115492;28;20039;-72
2022/09/14 04:18:28;;;;;;;2.28;1.02;;;17.20;99.90;;;;;;5115346;28;20031;-72
2022/09/14 04:21:17;;;;;;;0.57;0.57;;;17.20;99.90;;;;;;5115094;28;20019;-72
2022/09/14 04:23:43;;;;;;;0.60;0.60;;;17.10;99.90;;;;;;5096661;28;20020;-73
2022/09/14 04:26:15;;;;;;;2.03;1.25;;;17.10;99.90;;;;;;5114858;28;20040;-73
2022/09/14 04:28:41;;;;;;;1.40;0.75;;;17.10;99.90;;;;;;5114889;28;20030;-72
2022/09/14 04:31:09;;;;;;;2.30;1.50;;;17.10;99.90;;;;;;5115297;28;20031;-72
2022/09/14 04:33:35;;;;;;;1.10;0.98;;;17.10;99.90;;;;;;5115033;28;20118;-72
2022/09/14 04:36:13;;;;;;;5.15;1.20;;;17.10;99.90;;;;;;5114910;28;20020;-72
2022/09/14 04:38:40;;;;;;;1.17;1.02;;;17.10;99.90;;;;;;5096218;28;20031;-72
2022/09/14 04:41:08;;;;;;;8.90;1.00;;;17.10;99.90;;;;;;5114575;28;20126;-72
2022/09/14 04:43:34;;;;;;;1.48;1.13;;;17.20;99.90;;;;;;5114601;28;20027;-72
2022/09/14 04:46:02;;;;;;;0.85;0.85;;;17.10;99.90;;;;;;5114623;28;20099;-72
2022/09/14 04:48:32;;;;;;;3.88;1.27;;;17.00;99.90;;;;;;5114223;28;20023;-73
2022/09/14 04:51:02;;;;;;;1.08;1.00;;;17.10;99.90;;;;;;5096205;28;20310;-72
2022/09/14 04:53:28;;;;;;;1.75;1.35;;;17.00;99.90;;;;;;5114350;28;20038;-72
2022/09/14 04:56:01;;;;;;;0.95;0.60;;;17.00;99.90;;;;;;5114548;28;20024;-72
2022/09/14 04:58:28;;;;;;;0.60;0.60;;;16.90;99.90;;;;;;5114414;28;20024;-73
2022/09/14 05:01:07;;;;;;;0.95;0.82;;;16.90;99.90;;;;;;5114176;28;20413;-72
2022/09/14 05:03:34;;;;;;;1.08;0.93;;;16.90;99.90;;;;;;5095856;28;20037;-73
2022/09/14 05:06:04;;;;;;;1.85;1.20;;;16.90;99.90;;;;;;5095997;28;20027;-72
2022/09/14 05:08:30;;;;;;;1.50;1.42;;;16.90;99.90;;;;;;5095861;28;20032;-72
2022/09/14 05:10:57;;;;;;;0.65;0.65;;;17.00;99.90;;;;;;5114170;28;20027;-73
2022/09/14 05:13:23;;;;;;;0.80;0.80;;;17.00;99.90;;;;;;5114327;28;20032;-73
2022/09/14 05:15:50;;;;;;;1.65;1.40;;;16.80;99.90;;;;;;5114464;28;20529;-74
2022/09/14 05:18:16;;;;;;;0.65;0.65;;;17.00;99.90;;;;;;5095675;28;20490;-74
2022/09/14 05:20:42;;;;;;;1.70;1.27;;;17.00;99.90;;;;;;5095663;28;20371;-75
2022/09/14 05:23:08;;;;;;;0.85;0.75;;;17.00;99.90;;;;;;5114736;28;20024;-73
2022/09/14 05:25:33;;;;;;;0.70;0.70;;;17.10;99.90;;;;;;5114273;28;20376;-73
2022/09/14 05:27:59;;;;;;;2.10;1.20;;;17.20;99.90;;;;;;5113957;28;20109;-76
2022/09/14 05:30:25;;;;;;;8.55;1.13;;;17.30;99.90;;;;;;5095401;28;20047;-74
2022/09/14 05:32:51;;;;;;;1.85;1.48;;;17.50;99.90;;;;;;5116844;28;20039;-75
2022/09/14 05:35:17;;;;;;;0.98;0.98;;;17.60;99.90;;;;;;5115124;28;20069;-71
2022/09/14 05:37:42;;;;;;;0.75;0.75;;;17.60;99.90;;;;;;5118267;28;20028;-73
2022/09/14 05:40:08;;;;;;;1.25;1.25;;;17.70;99.90;;;;;;5119398;28;20324;-74
2022/09/14 05:42:34;;;;;;;1.02;0.95;;;17.70;99.90;;;;;;5122864;28;20024;-76
2022/09/14 05:45:00;;;;;;;1.50;1.10;;;17.70;99.90;;;;;;5114466;28;20020;-74
2022/09/14 05:47:29;;;;;;;1.20;1.10;;;17.80;99.90;;;;;;5123911;28;20024;-77
2022/09/14 05:49:56;;;;;;;0.95;0.95;;;17.70;99.90;;;;;;5121560;28;20019;-76
2022/09/14 05:52:22;;;;;;;0.80;0.80;;;17.70;99.90;;;;;;5123897;28;20231;-76
2022/09/14 05:54:47;;;;;;;2.63;1.13;;;17.80;99.90;;;;;;5124012;28;20019;-75
2022/09/14 05:57:13;;;;;;;1.55;1.17;;;17.70;99.90;;;;;;5123765;28;20083;-77
2022/09/14 05:59:38;;;;;;;1.13;1.02;;;17.70;99.90;;;;;;5123436;28;20016;-78
2022/09/14 06:02:05;;;;;;;8.98;1.92;;;17.70;99.90;;;;;;5123526;28;20015;-75
2022/09/14 06:04:30;;;;;;;4.28;2.50;;;17.70;99.90;;;;;;5123462;28;20043;-75
2022/09/14 06:06:56;;;;;;;10.85;0.80;;;17.70;99.90;;;;;;5123144;28;20030;-76
2022/09/14 06:09:22;;;;;;;5.93;1.73;;;17.70;99.90;;;;;;5101612;28;20020;-76
2022/09/14 06:11:47;;;;;;;1.67;1.52;;;17.70;99.90;;;;;;5104000;28;20480;-75
2022/09/14 06:14:18;;;;;;;1.35;1.27;;;17.70;99.90;;;;;;5122139;28;20032;-75
2022/09/14 06:16:44;;;;;;;1.27;0.93;;;17.70;99.90;;;;;;5104148;28;20092;-75
2022/09/14 06:19:11;;;;;;;2.97;1.02;;;17.80;99.90;;;;;;5119947;28;20038;-75
2022/09/14 06:21:36;;;;;;;1.42;1.25;;;17.80;99.90;;;;;;5122232;28;20311;-75
2022/09/14 06:24:03;;;;;;;1.63;1.52;;;17.90;99.90;;;;;;5117999;28;20028;-74
2022/09/14 06:26:29;;;;;;;1.70;1.30;;;18.10;99.90;;;;;;5117674;28;20039;-75
2022/09/14 06:28:54;;;;;;;1.50;1.17;;;18.20;99.90;;;;;;5095087;28;20384;-75
2022/09/14 06:31:24;;;;;;;1.02;1.00;;;18.30;99.90;;;;;;5095052;28;20043;-75
2022/09/14 06:33:50;;;;;;;1.90;1.65;;;18.50;99.90;;;;;;5094901;28;20142;-75
2022/09/14 06:36:18;;;;;;;1.80;1.35;;;18.60;99.90;;;;;;5095376;28;20484;-75
2022/09/14 06:38:46;;;;;;;3.97;1.27;;;18.70;99.90;;;;;;5094966;28;20028;-75
2022/09/14 06:41:13;;;;;;;3.55;0.80;;;18.80;99.90;;;;;;5094980;28;20073;-77
2022/09/14 06:43:40;;;;;;;0.88;0.88;;;19.00;99.90;;;;;;5113280;28;20531;-75
2022/09/14 06:46:10;;;;;;;2.22;0.70;;;19.20;99.90;;;;;;5113154;28;20059;-74
2022/09/14 06:48:40;;;;;;;1.42;1.30;;;19.30;99.90;;;;;;5113232;28;20102;-75
2022/09/14 06:51:17;;;;;;;0.80;0.80;;;19.40;99.90;;;;;;5113105;28;20388;-74
2022/09/14 06:53:44;;;;;;;1.10;0.60;;;19.70;99.90;;;;;;5113003;28;20038;-75
2022/09/14 06:56:10;;;;;;;2.55;1.10;;;19.90;99.90;;;;;;5095298;28;20432;-74
2022/09/14 06:58:36;;;;;;;1.25;0.93;;;20.10;99.90;;;;;;5094765;28;20081;-75
2022/09/14 07:01:07;;;;;;;1.10;1.00;;;20.30;99.90;;;;;;5113897;28;20410;-76
2022/09/14 07:03:35;;;;;;;0.95;0.82;;;20.70;99.90;;;;;;5098232;28;20047;-76
2022/09/14 07:06:10;;;;;;;1.88;1.45;;;20.90;99.90;;;;;;5098332;28;20114;-75
2022/09/14 07:08:37;;;;;;;1.55;1.10;;;21.10;99.90;;;;;;5098095;28;20034;-77
2022/09/14 07:11:04;;;;;;;71.32;17.02;;;21.20;99.90;;;;;;5116739;28;20020;-75
2022/09/14 07:13:31;;;;;;;1.45;1.05;;;21.40;99.90;;;;;;5116262;28;20034;-76
2022/09/14 07:15:57;;;;;;;3.13;1.40;;;21.50;99.90;;;;;;5116396;28;20491;-75
2022/09/14 07:18:31;;;;;;;6.75;2.70;;;21.70;99.90;;;;;;5098203;28;20024;-75
2022/09/14 07:21:04;;;;;;;1.60;1.30;;;21.90;99.90;;;;;;5116423;28;20015;-74
2022/09/14 07:23:31;;;;;;;3.53;0.77;;;;;;;;;;5116375;28;20024;-75
2022/09/14 07:26:06;;;;;;;4.15;1.45;;;22.30;99.90;;;;;;5116425;28;20031;-75
2022/09/14 07:28:32;;;;;;;1.65;1.27;;;22.40;99.90;;;;;;5097783;28;20023;-75
2022/09/14 07:30:58;;;;;;;4.85;0.90;;;22.60;99.90;;;;;;5115916;28;20024;-74
2022/09/14 07:33:24;;;;;;;2.05;1.00;;;22.80;99.90;;;;;;5116016;28;20091;-75
2022/09/14 07:35:51;;;;;;;2.40;1.20;;;23.10;99.90;;;;;;5116061;28;20104;-75
2022/09/14 07:38:18;;;;;;;1.42;0.98;;;;;;;;;;5116196;28;20019;-75
2022/09/14 07:40:44;;;;;;;1.67;1.40;;;23.50;99.90;;;;;;5116130;28;20026;-75
2022/09/14 07:43:09;;;;;;;3.00;1.23;;;23.80;99.90;;;;;;5115762;28;20094;-75
2022/09/14 07:45:37;;;;;;;1.02;0.40;;;24.00;99.90;;;;;;5115941;28;20028;-75
2022/09/14 07:48:04;;;;;;;1.17;0.95;;;24.10;99.90;;;;;;5115783;28;20026;-77
2022/09/14 07:50:30;;;;;;;0.77;0.77;;;24.10;99.90;;;;;;5115788;28;20023;-74
2022/09/14 07:52:55;;;;;;;1.77;1.00;;;24.30;99.90;;;;;;5115633;28;20036;-73
2022/09/14 07:55:21;;;;;;;2.08;1.20;;;24.60;99.90;;;;;;5115639;28;20034;-75
2022/09/14 07:57:47;;;;;;;2.72;1.02;;;24.90;99.90;;;;;;5097311;28;20118;-75
2022/09/14 08:00:13;;;;;;;2.50;0.77;;;25.20;99.90;;;;;;5115303;28;20051;-75
2022/09/14 08:02:39;;;;;;;0.50;0.50;;;25.50;99.90;;;;;;5115247;28;20027;-75
2022/09/14 08:05:05;;;;;;;0.80;0.57;;;25.80;99.90;;;;;;5096877;28;20042;-74
2022/09/14 08:07:31;;;;;;;1.00;0.80;;;25.90;99.90;;;;;;5115200;28;20039;-75
2022/09/14 08:09:57;;;;;;;3.22;1.17;;;26.00;99.90;;;;;;5115390;28;20027;-75
2022/09/14 08:12:23;;;;;;;0.93;0.85;;;26.00;99.90;;;;;;5114413;28;20028;-75
2022/09/14 08:14:51;;;;;;;1.02;0.90;;;25.70;99.90;;;;;;5096788;28;20055;-75
2022/09/14 08:17:16;;;;;;;0.88;0.60;;;25.50;99.90;;;;;;5115289;28;20034;-75
2022/09/14 08:19:42;;;;;;;1.98;1.20;;;25.40;99.90;;;;;;5096885;28;20023;-75
2022/09/14 08:22:11;;;;;;;0.65;0.63;;;25.30;99.90;;;;;;5114971;28;20019;-74
2022/09/14 08:24:37;;;;;;;10.77;1.13;;;25.30;99.90;;;;;;5097143;28;20028;-75
2022/09/14 08:27:03;;;;;;;1.10;0.88;;;25.10;99.90;;;;;;5115092;28;20442;-73
2022/09/14 08:29:29;;;;;;;0.73;0.73;;;25.10;99.90;;;;;;5115085;28;20023;-74
2022/09/14 08:31:54;;;;;;;2.00;0.70;;;25.00;99.90;;;;;;5115036;28;20484;-74
2022/09/14 08:34:20;;;;;;;1.65;1.13;;;24.90;99.90;;;;;;5114913;28;20032;-74
2022/09/14 08:36:46;;;;;;;0.70;0.70;;;24.60;99.90;;;;;;5096594;28;20123;-74
2022/09/14 08:39:14;;;;;;;1.50;1.08;;;24.50;99.90;;;;;;5114741;28;20488;-73
2022/09/14 08:41:43;;;;;;;0.73;0.70;;;24.50;99.90;;;;;;5114735;28;20024;-73
2022/09/14 08:44:18;;;;;;;0.77;0.77;;;24.50;99.90;;;;;;5114843;28;20077;-74
2022/09/14 08:47:02;;;;;;;1.60;1.08;;;24.40;99.90;;;;;;5114593;28;20090;-74
2022/09/14 08:49:47;;;;;;;2.85;1.48;;;24.20;99.90;;;;;;5096349;28;20019;-75
2022/09/14 08:52:33;;;;;;;2.72;2.25;;;24.00;99.90;;;;;;5114559;28;20321;-74
2022/09/14 08:55:01;;;;;;;1.15;0.90;;;23.90;99.90;;;;;;5114503;28;20038;-74
2022/09/14 08:57:42;;;;;;;1.42;0.93;;;23.60;99.90;;;;;;5114475;28;20023;-74
2022/09/14 09:00:14;;;;;;;0.52;0.45;;;23.40;99.90;;;;;;5114457;28;20103;-74
2022/09/14 09:03:20;;;;;;;1.25;0.47;;;23.20;99.90;;;;;;5114435;28;20024;-78
2022/09/14 09:06:33;;;;;;;1.33;0.98;;;22.90;99.90;;;;;;5113343;28;20047;-78
2022/09/14 09:09:17;;;;;;;3.67;1.60;;;22.80;99.90;;;;;;5075546;28;20039;-78
2022/09/14 09:11:47;;;;;;;2.80;0.88;;;22.70;99.90;;;;;;5114236;28;20023;-77
2022/09/14 09:14:36;;;;;;;;;;;22.50;99.90;;;;;;5114433;28;20037;-75
2022/09/14 09:17:16;;;;;;;3.85;2.35;;;22.40;99.90;;;;;;5085213;28;19957;-77
2022/09/14 09:20:06;;;;;;;0.70;0.70;;;22.10;99.90;;;;;;5115771;28;20503;-78
2022/09/14 09:22:41;;;;;;;3.72;1.02;;;21.90;99.90;;;;;;5100920;28;20036;-78
2022/09/14 09:25:22;;;;;;;0.88;0.88;;;21.80;99.90;;;;;;5114086;28;20027;-79
2022/09/14 09:28:01;;;;;;;1.48;1.38;;;21.90;99.90;;;;;;5113745;28;20171;-79
2022/09/14 09:30:28;;;;;;;1.10;1.00;;;22.60;99.90;;;;;;5095840;28;20027;-77
2022/09/14 09:32:54;;;;;;;2.97;1.33;;;22.60;99.90;;;;;;5113661;28;20510;-76
2022/09/14 09:35:23;;;;;;;1.42;1.20;;;22.90;99.90;;;;;;5113791;28;20024;-78
2022/09/14 09:37:48;;;;;;;;;;;23.20;99.90;;;;;;5114251;28;20023;-76
2022/09/14 09:40:18;;;;;;;1.52;0.80;;;23.60;99.90;;;;;;5113889;28;19910;-76
2022/09/14 09:43:07;;;;;;;0.85;0.85;;;23.80;99.90;;;;;;5113785;28;20391;-75
2022/09/14 09:45:45;;;;;;;1.73;0.98;;;24.30;99.90;;;;;;5114102;28;20024;-77
2022/09/14 09:48:13;;;;;;;0.63;0.63;;;24.50;99.90;;;;;;5101232;28;20300;-74
2022/09/14 09:51:09;;;;;;;0.38;0.35;;;24.50;99.90;;;;;;5116456;28;20111;-77
2022/09/14 09:53:58;;;;;;;1.08;0.85;;;24.40;99.90;;;;;;5113760;28;20034;-75
2022/09/14 09:56:35;;;;;;;;;;;24.10;99.90;;;;;;5095682;28;20480;-74
2022/09/14 09:59:00;;;;;;;4.78;0.75;;;24.00;99.90;;;;;;5115494;28;19910;-74
2022/09/14 10:01:29;;;;;;;6.07;1.08;;;24.20;99.90;;;;;;5102072;28;20059;-75
2022/09/14 10:04:15;;;;;;;1.65;1.30;;;24.40;99.90;;;;;;5093575;28;20044;-75
2022/09/14 10:06:49;;;;;;;0.30;0.30;;;24.60;99.90;;;;;;5093541;28;20020;-75
2022/09/14 10:09:22;;;;;;;2.70;0.88;;;24.60;99.90;;;;;;5096666;28;20027;-78
2022/09/14 10:11:57;;;;;;;0.40;0.40;;;24.50;99.90;;;;;;5093067;28;20421;-77
2022/09/14 10:14:30;;;;;;;0.30;0.30;;;24.50;99.90;;;;;;5093141;28;20107;-79
2022/09/14 10:17:05;;;;;;;0.85;0.45;;;24.70;99.90;;;;;;5093309;28;20073;-75
2022/09/14 10:19:32;;;;;;;0.70;0.30;;;24.70;99.90;;;;;;5093450;28;20025;-75
2022/09/14 10:22:31;;;;;;;5.50;0.68;;;24.70;99.90;;;;;;5099575;28;20087;-76
2022/09/14 10:25:19;;;;;;;2.35;1.38;;;24.70;99.90;;;;;;5075236;28;20032;-77
2022/09/14 10:27:55;;;;;;;0.43;0.38;;;24.70;99.90;;;;;;5093465;28;20028;-78
2022/09/14 10:30:24;;;;;;;1.17;0.73;;;24.70;99.90;;;;;;5092992;28;20020;-75
2022/09/14 10:33:02;;;;;;;0.30;0.30;;;24.60;99.90;;;;;;5093831;28;20035;-77
2022/09/14 10:35:58;;;;;;;5.10;0.75;;;24.70;99.90;;;;;;5093356;28;20020;-75
2022/09/14 10:38:32;;;;;;;0.20;0.20;;;24.80;99.90;;;;;;5102808;28;20019;-78
2022/09/14 10:41:25;;;;;;;0.45;0.38;;;24.90;99.90;;;;;;5107560;28;20054;-74
2022/09/14 10:44:29;;;;;;;0.22;0.22;;;25.00;99.90;;;;;;5099651;28;20432;-74
2022/09/14 10:47:21;;;;;;;0.47;0.47;;;24.80;99.90;;;;;;5065924;28;20040;-74
2022/09/14 10:50:25;;;;;;;2.90;1.08;;;24.70;99.90;;;;;;5098898;28;20141;-75
2022/09/14 10:53:06;;;;;;;1.08;0.73;;;;;;;;;;5102417;28;20032;-77
2022/09/14 10:55:42;;;;;;;1.33;0.95;;;24.60;99.90;;;;;;5100758;28;20491;-75
2022/09/14 10:58:17;;;;;;;0.10;0.10;;;24.50;99.90;;;;;;5106491;28;20020;-75
2022/09/14 11:01:05;;;;;;;0.30;0.20;;;24.40;99.90;;;;;;5106335;28;20024;-75
2022/09/14 11:03:54;;;;;;;0.52;0.20;;;24.30;99.90;;;;;;5088522;28;20028;-75
2022/09/14 11:06:51;;;;;;;0.20;0.20;;;24.20;99.90;;;;;;5098815;28;20361;-75
2022/09/14 11:09:25;;;;;;;0.28;0.28;;;24.30;99.90;;;;;;5116493;28;20028;-75
2022/09/14 11:12:06;;;;;;;0.63;0.13;;;24.50;99.90;;;;;;5098382;28;20106;-75
2022/09/14 11:14:54;;;;;;;0.40;0.40;;;24.70;99.90;;;;;;5116623;28;20032;-75
2022/09/14 11:17:25;;;;;;;0.38;0.38;;;25.00;99.90;;;;;;5098099;28;20039;-75
2022/09/14 11:20:35;;;;;;;0.30;0.30;;;25.20;99.90;;;;;;5098240;28;20032;-75
2022/09/14 11:23:04;;;;;;;1.55;0.28;;;25.00;99.90;;;;;;5098069;28;20032;-75
2022/09/14 11:25:48;;;;;;;0.40;0.40;;;25.40;99.90;;;;;;5098195;28;20039;-75
2022/09/14 11:28:43;;;;;;;0.50;0.45;;;25.80;99.90;;;;;;5116290;28;20072;-75
2022/09/14 11:31:17;;;;;;;0.28;0.28;;;25.90;99.90;;;;;;5062438;28;20035;-75
2022/09/14 11:34:09;;;;;;;0.60;0.60;;;26.10;99.90;;;;;;5113202;28;20031;-74
2022/09/14 11:36:43;;;;;;;0.50;0.50;;;26.30;99.90;;;;;;5118521;28;20027;-75
2022/09/14 11:39:24;;;;;;;0.50;0.50;;;26.20;99.90;;;;;;5124397;28;20019;-75
2022/09/14 11:41:53;;;;;;;6.82;0.82;;;25.90;99.90;;;;;;5116031;28;20020;-76
2022/09/14 11:44:29;;;;;;;1.35;0.57;;;25.60;99.90;;;;;;5098704;28;20451;-77
2022/09/14 11:47:04;;;;;;;2.25;0.55;;;25.50;99.90;;;;;;5116770;28;20027;-76
2022/09/14 11:49:51;;;;;;;0.98;0.68;;;25.40;99.90;;;;;;5099340;28;20019;-76
2022/09/14 11:52:22;;;;;;;0.60;0.60;;;25.30;99.90;;;;;;5097540;28;20092;-76
2022/09/14 11:54:49;;;;;;;0.38;0.38;;;25.10;99.90;;;;;;5097356;28;20038;-76
2022/09/14 11:57:22;;;;;;;0.70;0.35;;;25.00;99.90;;;;;;5097267;28;20024;-77
2022/09/14 11:59:52;;;;;;;0.57;0.57;;;24.80;99.90;;;;;;5115582;28;20028;-78
2022/09/14 12:02:26;;;;;;;3.70;1.17;;;24.90;99.90;;;;;;5115569;28;20058;-77
2022/09/14 12:05:04;;;;;;;6.47;1.27;;;24.70;99.90;;;;;;5097076;28;20043;-77
2022/09/14 12:07:42;;;;;;;0.55;0.55;;;24.70;99.90;;;;;;5115469;28;20028;-77
2022/09/14 12:10:14;;;;;;;0.30;0.30;;;24.50;99.90;;;;;;5117009;28;20069;-77
2022/09/14 12:12:54;;;;;;;7.50;0.60;;;24.00;99.90;;;;;;5096986;28;20031;-77
2022/09/14 12:15:22;;;;;;;1.23;0.95;;;24.00;99.90;;;;;;5115191;28;20437;-77
2022/09/14 12:17:49;;;;;;;0.40;0.40;;;23.80;99.90;;;;;;5098417;28;20072;-76
2022/09/14 12:20:35;;;;;;;1.33;0.40;;;23.70;99.90;;;;;;5115256;28;20376;-76
2022/09/14 12:23:04;;;;;;;1.38;1.27;;;23.50;99.90;;;;;;5097774;28;20028;-76
2022/09/14 12:25:30;;;;;;;0.50;0.50;;;23.20;99.90;;;;;;5115127;28;20019;-76
2022/09/14 12:27:56;;;;;;;0.63;0.50;;;;;;;;;;5116596;28;20030;-76
2022/09/14 12:30:40;;;;;;;5.28;0.52;;;23.00;99.90;;;;;;5115019;28;20030;-76
2022/09/14 12:33:32;;;;;;;1.23;1.10;;;22.80;99.90;;;;;;5096678;28;20039;-76
2022/09/14 12:36:00;;;;;;;0.52;0.52;;;22.70;99.90;;;;;;5096226;28;20019;-75
2022/09/14 12:38:29;;;;;;;0.35;0.35;;;22.60;99.90;;;;;;5114738;28;20056;-76
2022/09/14 12:40:56;;;;;;;0.40;0.40;;;22.60;99.90;;;;;;5096701;28;20023;-76
2022/09/14 12:43:33;;;;;;;0.47;0.40;;;22.50;99.90;;;;;;5114793;28;20277;-76
2022/09/14 12:46:19;;;;;;;0.40;0.30;;;22.30;99.90;;;;;;5114664;28;20024;-76
2022/09/14 12:48:47;;;;;;;0.98;0.63;;;22.00;99.90;;;;;;5096346;28;20016;-76
2022/09/14 12:51:29;;;;;;;1.33;1.23;;;21.80;99.90;;;;;;5096293;28;20024;-75
2022/09/14 12:54:00;;;;;;;2.75;1.45;;;21.60;99.90;;;;;;5096154;28;20039;-76
2022/09/14 12:56:39;;;;;;;2.80;0.50;;;21.60;99.90;;;;;;5098879;28;20050;-75
2022/09/14 12:59:28;;;;;;;1.55;0.60;;;21.60;99.90;;;;;;5096047;28;20035;-76
2022/09/14 13:02:02;;;;;;;1.07;0.37;;;;;;;;;;5096311;28;20024;-75
2022/09/14 13:04:32;;;;;;;0.40;0.40;;;21.70;99.90;;;;;;5092924;28;20516;-75
2022/09/14 13:07:01;;;;;;;0.73;0.50;;;21.80;99.90;;;;;;5092942;28;20372;-76
2022/09/14 13:09:28;;;;;;;;;;;22.10;99.90;;;;;;5094396;28;20100;-75
2022/09/14 13:12:05;;;;;;;0.90;0.90;;;22.10;99.90;;;;;;5093808;28;19913;-75
2022/09/14 13:14:39;;;;;;;0.47;0.47;;;22.10;99.90;;;;;;5092371;28;20041;-75
2022/09/14 13:17:12;;;;;;;0.85;0.40;;;22.30;99.90;;;;;;5093676;28;20024;-76